createdAt,value
2019-01-09T00:00:59.253Z,1.93
2019-01-09T00:03:28.321Z,1.93
2019-01-09T00:05:57.691Z,1.83
2019-01-09T00:08:26.889Z,1.00
2019-01-09T00:10:56.087Z,2.03
2019-01-09T00:13:25.450Z,2.33
2019-01-09T00:15:54.630Z,1.13
2019-01-09T00:18:23.985Z,1.10
2019-01-09T00:20:53.119Z,1.60
2019-01-09T00:23:22.189Z,0.97
2019-01-09T00:25:51.557Z,1.90
2019-01-09T00:28:20.678Z,3.13
2019-01-09T00:30:50.053Z,1.30
2019-01-09T00:33:19.132Z,1.10
2019-01-09T00:35:48.219Z,2.37
2019-01-09T00:38:17.301Z,0.80
2019-01-09T00:40:46.658Z,0.97
2019-01-09T00:43:15.765Z,1.10
2019-01-09T00:45:45.189Z,4.27
2019-01-09T00:48:14.558Z,0.97
2019-01-09T00:50:43.701Z,1.53
2019-01-09T00:53:12.813Z,1.50
2019-01-09T00:55:41.929Z,1.30
2019-01-09T00:58:11.367Z,0.90
2019-01-09T01:00:40.792Z,1.60
2019-01-09T01:03:24.671Z,0.93
2019-01-09T01:06:19.424Z,1.30
2019-01-09T01:09:08.172Z,3.20
2019-01-09T01:11:47.642Z,1.50
2019-01-09T01:14:38.336Z,3.70
2019-01-09T01:17:22.576Z,1.23
2019-01-09T01:20:12.772Z,2.17
2019-01-09T01:23:20.076Z,1.00
2019-01-09T01:25:57.987Z,1.10
2019-01-09T01:28:40.489Z,1.00
2019-01-09T01:31:35.385Z,2.10
2019-01-09T01:34:25.627Z,1.00
2019-01-09T01:37:00.389Z,1.43
2019-01-09T01:39:48.820Z,1.63
2019-01-09T01:42:28.536Z,1.67
2019-01-09T01:45:18.871Z,1.20
2019-01-09T01:48:09.399Z,1.33
2019-01-09T01:51:02.121Z,1.37
2019-01-09T01:53:36.199Z,1.73
2019-01-09T01:56:26.843Z,1.30
2019-01-09T01:59:00.883Z,1.73
2019-01-09T02:02:01.583Z,3.87
2019-01-09T02:04:46.846Z,2.33
2019-01-09T02:07:56.165Z,2.13
2019-01-09T02:10:51.015Z,1.53
2019-01-09T02:13:39.342Z,1.13
2019-01-09T02:16:47.554Z,1.47
2019-01-09T02:19:21.600Z,1.40
2019-01-09T02:22:27.073Z,1.17
2019-01-09T02:25:30.070Z,1.60
2019-01-09T02:28:22.181Z,1.73
2019-01-09T02:31:11.012Z,2.20
2019-01-09T02:33:40.397Z,2.40
2019-01-09T02:36:13.672Z,1.93
2019-01-09T02:38:40.650Z,1.60
2019-01-09T02:41:09.728Z,2.80
2019-01-09T02:43:39.095Z,4.53
2019-01-09T02:46:08.209Z,2.00
2019-01-09T02:48:37.604Z,3.47
2019-01-09T02:51:06.680Z,2.17
2019-01-09T02:53:35.770Z,2.70
2019-01-09T02:56:04.866Z,2.10
2019-01-09T02:58:34.226Z,2.70
2019-01-09T03:01:03.667Z,3.60
2019-01-09T03:03:32.749Z,1.98
2019-01-09T03:06:02.127Z,2.22
2019-01-09T03:08:31.465Z,2.40
2019-01-09T03:11:00.579Z,3.95
2019-01-09T03:13:29.664Z,1.85
2019-01-09T03:15:58.786Z,2.43
2019-01-09T03:18:27.889Z,2.60
2019-01-09T03:20:57.365Z,5.05
2019-01-09T03:23:26.712Z,2.77
2019-01-09T03:25:55.828Z,5.97
2019-01-09T03:28:24.918Z,3.20
2019-01-09T03:30:54.291Z,4.47
2019-01-09T03:33:23.648Z,1.77
2019-01-09T03:35:52.792Z,5.40
2019-01-09T03:38:22.124Z,7.97
2019-01-09T03:40:51.323Z,5.70
2019-01-09T03:43:20.644Z,3.40
2019-01-09T03:45:49.744Z,2.33
2019-01-09T03:48:19.108Z,2.25
2019-01-09T03:50:48.234Z,3.77
2019-01-09T03:53:17.306Z,4.08
2019-01-09T03:55:46.415Z,5.22
2019-01-09T03:58:15.492Z,5.13
2019-01-09T04:00:44.877Z,4.60
2019-01-09T04:03:13.948Z,4.55
2019-01-09T04:05:43.314Z,2.87
2019-01-09T04:08:12.733Z,3.47
2019-01-09T04:10:41.903Z,4.65
2019-01-09T04:13:11.008Z,4.60
2019-01-09T04:15:40.213Z,2.20
2019-01-09T04:18:09.337Z,1.92
2019-01-09T04:20:38.695Z,4.10
2019-01-09T04:23:07.807Z,3.65
2019-01-09T04:25:37.190Z,3.55
2019-01-09T04:28:06.306Z,4.08
2019-01-09T04:30:35.410Z,2.42
2019-01-09T04:33:04.526Z,3.50
2019-01-09T04:35:33.900Z,2.52
2019-01-09T04:38:03.239Z,2.72
2019-01-09T04:40:32.345Z,2.25
2019-01-09T04:43:01.424Z,2.80
2019-01-09T04:45:30.550Z,2.70
2019-01-09T04:47:59.638Z,2.35
2019-01-09T04:50:28.719Z,2.77
2019-01-09T04:52:57.804Z,3.73
2019-01-09T04:55:26.898Z,4.33
2019-01-09T04:57:56.243Z,2.92
2019-01-09T05:00:25.746Z,4.20
2019-01-09T05:02:54.858Z,2.62
2019-01-09T05:05:24.206Z,3.40
2019-01-09T05:07:53.308Z,3.47
2019-01-09T05:10:22.386Z,6.03
2019-01-09T05:12:51.532Z,6.83
2019-01-09T05:15:21.265Z,3.02
2019-01-09T05:17:50.626Z,3.27
2019-01-09T05:20:19.735Z,4.83
2019-01-09T05:22:48.861Z,4.45
2019-01-09T05:25:18.199Z,4.28
2019-01-09T05:27:47.308Z,3.87
2019-01-09T05:30:16.403Z,4.28
2019-01-09T05:32:45.519Z,3.22
2019-01-09T05:35:14.842Z,2.95
2019-01-09T05:37:44.030Z,5.12
2019-01-09T05:40:13.143Z,5.33
2019-01-09T05:42:42.287Z,4.15
2019-01-09T05:45:11.402Z,4.67
2019-01-09T05:47:40.759Z,2.20
2019-01-09T05:50:09.844Z,4.67
2019-01-09T05:52:39.235Z,4.00
2019-01-09T05:55:08.343Z,4.47
2019-01-09T05:57:37.723Z,4.67
2019-01-09T06:00:09.307Z,5.75
2019-01-09T06:02:38.404Z,6.03
2019-01-09T06:05:07.916Z,6.05
2019-01-09T06:07:37.275Z,6.15
2019-01-09T06:10:07.628Z,3.22
2019-01-09T06:12:36.767Z,3.42
2019-01-09T06:15:07.249Z,5.25
2019-01-09T06:17:36.596Z,4.62
2019-01-09T06:20:07.264Z,5.92
2019-01-09T06:22:36.359Z,6.25
2019-01-09T06:25:06.665Z,4.00
2019-01-09T06:27:36.009Z,5.05
2019-01-09T06:30:05.959Z,4.28
2019-01-09T06:32:35.078Z,4.05
2019-01-09T06:35:04.489Z,3.20
2019-01-09T06:37:33.611Z,5.60
2019-01-09T06:40:03.042Z,3.55
2019-01-09T06:42:32.395Z,2.98
2019-01-09T06:45:01.505Z,3.22
2019-01-09T06:47:30.847Z,5.75
2019-01-09T06:49:59.933Z,6.87
2019-01-09T06:52:29.273Z,6.15
2019-01-09T06:54:58.356Z,5.58
2019-01-09T06:57:27.494Z,5.15
2019-01-09T06:59:56.856Z,5.53
2019-01-09T07:02:25.940Z,4.97
2019-01-09T07:04:55.284Z,4.62
2019-01-09T07:07:24.650Z,3.40
2019-01-09T07:09:53.728Z,4.08
2019-01-09T07:12:23.102Z,4.42
2019-01-09T07:14:52.184Z,3.58
2019-01-09T07:17:21.545Z,2.85
2019-01-09T07:19:50.625Z,3.60
2019-01-09T07:22:19.994Z,6.33
2019-01-09T07:24:49.087Z,3.90
2019-01-09T07:27:18.170Z,5.22
2019-01-09T07:29:47.537Z,2.50
2019-01-09T07:32:17.493Z,7.85
2019-01-09T07:34:46.605Z,2.37
2019-01-09T07:37:15.697Z,5.22
2019-01-09T07:39:47.048Z,4.03
2019-01-09T07:42:16.177Z,3.00
2019-01-09T07:44:45.399Z,5.37
2019-01-09T07:47:14.519Z,4.50
2019-01-09T07:49:43.964Z,3.55
2019-01-09T07:52:13.686Z,4.55
2019-01-09T07:54:42.876Z,4.60
2019-01-09T07:57:12.497Z,4.93
2019-01-09T07:59:41.682Z,7.75
2019-01-09T08:02:11.040Z,5.65
2019-01-09T08:04:40.395Z,6.42
2019-01-09T08:07:09.527Z,5.33
2019-01-09T08:09:38.900Z,3.77
2019-01-09T08:12:08.235Z,4.45
2019-01-09T08:14:37.375Z,5.03
2019-01-09T08:17:06.707Z,4.85
2019-01-09T08:19:35.809Z,5.97
2019-01-09T08:22:05.165Z,6.47
2019-01-09T08:24:34.529Z,7.72
2019-01-09T08:27:03.647Z,6.05
2019-01-09T08:29:33.010Z,3.27
2019-01-09T08:32:02.172Z,6.72
2019-01-09T08:34:31.540Z,5.12
2019-01-09T08:37:00.875Z,6.87
2019-01-09T08:39:29.991Z,3.02
2019-01-09T08:41:59.406Z,4.42
2019-01-09T08:44:28.514Z,3.53
2019-01-09T08:46:57.592Z,6.93
2019-01-09T08:49:27.044Z,4.28
2019-01-09T08:51:56.129Z,8.65
2019-01-09T08:54:25.496Z,3.70
2019-01-09T08:56:54.577Z,4.77
2019-01-09T08:59:23.943Z,7.87
2019-01-09T09:01:53.024Z,6.67
2019-01-09T09:04:22.112Z,3.53
2019-01-09T09:06:51.466Z,4.60
2019-01-09T09:09:20.608Z,7.03
2019-01-09T09:11:49.945Z,4.93
2019-01-09T09:14:19.008Z,6.60
2019-01-09T09:16:48.363Z,2.92
2019-01-09T09:19:17.696Z,4.25
2019-01-09T09:21:46.781Z,4.20
2019-01-09T09:24:15.876Z,6.47
2019-01-09T09:26:44.978Z,3.37
2019-01-09T09:29:14.325Z,5.65
2019-01-09T09:31:43.689Z,3.67
2019-01-09T09:34:12.765Z,4.80
2019-01-09T09:36:42.114Z,5.10
2019-01-09T09:39:11.244Z,4.90
2019-01-09T09:41:40.629Z,3.20
2019-01-09T09:44:09.730Z,3.43
2019-01-09T09:46:38.814Z,3.03
2019-01-09T09:49:07.977Z,2.98
2019-01-09T09:51:37.359Z,4.30
2019-01-09T09:54:06.457Z,2.70
2019-01-09T09:56:35.568Z,4.50
2019-01-09T09:59:04.766Z,3.83
2019-01-09T10:01:33.866Z,2.03
2019-01-09T10:04:03.197Z,2.13
2019-01-09T10:06:32.578Z,3.13
2019-01-09T10:09:01.677Z,2.30
2019-01-09T10:11:30.789Z,4.40
2019-01-09T10:13:59.873Z,4.37
2019-01-09T10:16:29.229Z,3.17
2019-01-09T10:18:59.393Z,3.93
2019-01-09T10:21:28.534Z,2.08
2019-01-09T10:23:57.704Z,2.13
2019-01-09T10:26:26.839Z,3.33
2019-01-09T10:28:55.925Z,4.33
2019-01-09T10:31:25.270Z,3.33
2019-01-09T10:33:54.351Z,3.93
2019-01-09T10:36:23.738Z,5.20
2019-01-09T10:38:52.922Z,3.67
2019-01-09T10:41:22.255Z,3.40
2019-01-09T10:43:51.359Z,2.40
2019-01-09T10:46:20.445Z,1.97
2019-01-09T10:48:49.536Z,1.75
2019-01-09T10:51:18.658Z,1.87
2019-01-09T10:53:47.749Z,2.17
2019-01-09T10:56:16.829Z,2.33
2019-01-09T10:58:46.205Z,4.40
2019-01-09T11:01:15.281Z,1.90
2019-01-09T11:03:44.389Z,3.17
2019-01-09T11:06:14.597Z,2.77
2019-01-09T11:08:47.149Z,2.30
2019-01-09T11:11:14.885Z,3.00
2019-01-09T11:13:43.971Z,2.00
2019-01-09T11:16:13.059Z,3.83
2019-01-09T11:18:42.169Z,2.10
2019-01-09T11:21:11.271Z,1.93
2019-01-09T11:23:40.355Z,2.43
2019-01-09T11:26:09.470Z,2.10
2019-01-09T11:28:38.833Z,2.77
2019-01-09T11:31:08.153Z,1.70
2019-01-09T11:33:37.516Z,3.73
2019-01-09T11:36:06.872Z,1.80
2019-01-09T11:38:35.952Z,1.97
2019-01-09T11:41:05.705Z,1.70
2019-01-09T11:43:35.063Z,3.47
2019-01-09T11:46:04.213Z,2.00
2019-01-09T11:48:33.664Z,1.93
2019-01-09T11:51:02.781Z,1.62
2019-01-09T11:53:31.900Z,2.35
2019-01-09T11:56:01.231Z,2.40
2019-01-09T11:58:30.362Z,1.80
2019-01-09T12:00:59.715Z,3.10
2019-01-09T12:03:29.075Z,4.07
2019-01-09T12:05:58.185Z,2.60
2019-01-09T12:08:27.538Z,2.47
2019-01-09T12:10:56.682Z,2.63
2019-01-09T12:13:26.078Z,1.70
2019-01-09T12:15:55.407Z,2.77
2019-01-09T12:18:24.495Z,1.67
2019-01-09T12:20:53.577Z,1.82
2019-01-09T12:23:22.684Z,9.45
2019-01-09T12:25:51.774Z,2.50
2019-01-09T12:28:20.897Z,2.77
2019-01-09T12:30:50.270Z,2.00
2019-01-09T12:33:19.630Z,2.10
2019-01-09T12:35:48.758Z,2.35
2019-01-09T12:38:18.131Z,3.22
2019-01-09T12:40:47.209Z,1.60
2019-01-09T12:43:16.558Z,1.67
2019-01-09T12:45:45.649Z,1.87
2019-01-09T12:48:14.986Z,1.67
2019-01-09T12:50:44.073Z,1.85
2019-01-09T12:53:13.440Z,2.35
2019-01-09T12:55:48.325Z,1.75
2019-01-09T12:58:17.434Z,1.82
2019-01-09T13:00:46.812Z,1.98
2019-01-09T13:03:15.918Z,2.40
2019-01-09T13:05:45.285Z,2.00
2019-01-09T13:08:14.349Z,2.30
2019-01-09T13:10:44.105Z,1.92
2019-01-09T13:13:13.191Z,2.25
2019-01-09T13:15:42.286Z,1.92
2019-01-09T13:18:11.368Z,4.92
2019-01-09T13:20:40.482Z,2.17
2019-01-09T13:23:11.277Z,2.83
2019-01-09T13:25:40.425Z,2.33
2019-01-09T13:28:09.767Z,2.30
2019-01-09T13:30:39.149Z,2.08
2019-01-09T13:33:08.256Z,2.80
2019-01-09T13:35:37.357Z,2.00
2019-01-09T13:38:06.462Z,2.47
2019-01-09T13:40:35.815Z,2.08
2019-01-09T13:43:04.888Z,2.17
2019-01-09T13:45:34.249Z,2.27
2019-01-09T13:48:03.326Z,2.30
2019-01-09T13:50:32.437Z,2.58
2019-01-09T13:53:01.555Z,2.55
2019-01-09T13:55:30.633Z,3.72
2019-01-09T13:58:00.009Z,2.50
2019-01-09T14:00:29.122Z,2.50
2019-01-09T14:02:58.234Z,2.60
2019-01-09T14:05:27.348Z,2.80
2019-01-09T14:07:56.711Z,2.17
2019-01-09T14:10:26.561Z,2.83
2019-01-09T14:12:55.673Z,3.33
2019-01-09T14:15:24.762Z,3.58
2019-01-09T14:17:54.158Z,3.67
2019-01-09T14:20:23.272Z,5.53
2019-01-09T14:22:52.637Z,5.55
2019-01-09T14:25:21.707Z,3.10
2019-01-09T14:27:51.077Z,4.58
2019-01-09T14:30:22.774Z,3.85
2019-01-09T14:32:51.898Z,4.62
2019-01-09T14:35:21.301Z,4.10
2019-01-09T14:37:50.637Z,3.75
2019-01-09T14:40:20.755Z,2.77
2019-01-09T14:42:49.849Z,2.75
2019-01-09T14:45:19.566Z,3.50
2019-01-09T14:47:48.964Z,2.42
2019-01-09T14:50:22.957Z,2.60
2019-01-09T14:52:52.392Z,4.78
2019-01-09T14:55:22.078Z,3.95
2019-01-09T14:57:51.981Z,4.62
2019-01-09T15:00:24.261Z,6.22
2019-01-09T15:02:53.666Z,4.20
2019-01-09T15:05:22.858Z,2.98
2019-01-09T15:07:52.276Z,3.50
2019-01-09T15:10:28.223Z,2.62
2019-01-09T15:12:58.092Z,3.10
2019-01-09T15:15:27.585Z,2.55
2019-01-09T15:17:56.694Z,4.92
2019-01-09T15:20:25.794Z,3.77
2019-01-09T15:22:54.911Z,4.28
2019-01-09T15:25:24.276Z,5.95
2019-01-09T15:27:53.365Z,2.98
2019-01-09T15:30:26.764Z,3.67
2019-01-09T15:32:56.132Z,3.35
2019-01-09T15:35:25.287Z,4.60
2019-01-09T15:37:54.674Z,3.98
2019-01-09T15:40:27.161Z,5.45
2019-01-09T15:42:56.562Z,3.87
2019-01-09T15:45:26.033Z,3.90
2019-01-09T15:47:55.186Z,6.22
2019-01-09T15:50:27.453Z,2.60
2019-01-09T15:52:56.827Z,3.52
2019-01-09T15:55:25.937Z,3.62
2019-01-09T15:57:55.326Z,5.40
2019-01-09T16:00:31.805Z,2.90
2019-01-09T16:03:01.750Z,3.55
2019-01-09T16:05:33.523Z,4.67
2019-01-09T16:08:03.509Z,2.87
2019-01-09T16:10:32.869Z,3.75
2019-01-09T16:13:02.304Z,3.98
2019-01-09T16:15:31.931Z,3.05
2019-01-09T16:18:01.293Z,4.65
2019-01-09T16:20:30.371Z,3.72
2019-01-09T16:22:59.481Z,3.47
2019-01-09T16:25:28.615Z,4.10
2019-01-09T16:27:57.937Z,5.22
2019-01-09T16:30:39.234Z,3.98
2019-01-09T16:33:08.342Z,4.37
2019-01-09T16:35:38.722Z,4.08
2019-01-09T16:38:08.082Z,3.33
2019-01-09T16:40:37.391Z,3.55
2019-01-09T16:43:06.529Z,3.08
2019-01-09T16:45:35.611Z,4.53
2019-01-09T16:48:05.370Z,3.08
2019-01-09T16:50:34.456Z,3.57
2019-01-09T16:53:03.801Z,2.93
2019-01-09T16:55:32.878Z,2.90
2019-01-09T16:58:02.222Z,4.83
2019-01-09T17:00:34.167Z,5.20
2019-01-09T17:03:03.261Z,6.37
2019-01-09T17:05:32.619Z,3.70
2019-01-09T17:08:02.051Z,4.00
2019-01-09T17:10:32.742Z,5.30
2019-01-09T17:13:02.478Z,4.05
2019-01-09T17:15:31.594Z,3.67
2019-01-09T17:18:01.678Z,4.65
2019-01-09T17:20:32.317Z,6.03
2019-01-09T17:23:01.408Z,7.42
2019-01-09T17:25:30.505Z,9.80
2019-01-09T17:27:59.602Z,13.18
2019-01-09T17:30:31.473Z,7.03
2019-01-09T17:33:00.590Z,4.45
2019-01-09T17:35:30.157Z,4.55
2019-01-09T17:37:59.457Z,4.85
2019-01-09T17:40:28.587Z,4.35
2019-01-09T17:42:57.942Z,3.75
2019-01-09T17:45:27.395Z,6.65
2019-01-09T17:47:56.783Z,4.92
2019-01-09T17:50:31.577Z,4.70
2019-01-09T17:53:01.038Z,4.62
2019-01-09T17:55:30.145Z,4.78
2019-01-09T17:57:59.273Z,4.60
2019-01-09T18:00:33.670Z,4.22
2019-01-09T18:03:02.982Z,4.42
2019-01-09T18:05:32.338Z,4.37
2019-01-09T18:08:10.132Z,5.33
2019-01-09T18:10:32.460Z,4.60
2019-01-09T18:13:01.544Z,5.17
2019-01-09T18:15:31.023Z,4.35
2019-01-09T18:18:00.355Z,2.95
2019-01-09T18:20:29.724Z,3.62
2019-01-09T18:22:58.830Z,3.27
2019-01-09T18:25:29.791Z,3.45
2019-01-09T18:27:58.930Z,4.25
2019-01-09T18:30:38.635Z,3.92
2019-01-09T18:33:18.476Z,3.62
2019-01-09T18:36:21.227Z,3.45
2019-01-09T18:38:59.914Z,3.40
2019-01-09T18:41:50.330Z,3.35
2019-01-09T18:44:22.603Z,3.95
2019-01-09T18:47:10.912Z,5.40
2019-01-09T18:49:48.901Z,4.33
2019-01-09T18:52:43.307Z,5.22
2019-01-09T18:55:12.476Z,4.42
2019-01-09T18:57:41.610Z,3.80
2019-01-09T19:00:19.815Z,3.55
2019-01-09T19:02:49.014Z,3.20
2019-01-09T19:05:18.289Z,3.50
2019-01-09T19:07:47.730Z,4.67
2019-01-09T19:10:19.718Z,3.65
2019-01-09T19:12:50.555Z,4.35
2019-01-09T19:15:19.893Z,4.22
2019-01-09T19:17:49.245Z,3.95
2019-01-09T19:20:18.450Z,4.60
2019-01-09T19:22:47.625Z,4.22
2019-01-09T19:25:17.334Z,4.00
2019-01-09T19:27:46.874Z,3.62
2019-01-09T19:30:27.088Z,3.50
2019-01-09T19:32:56.239Z,5.60
2019-01-09T19:35:25.345Z,3.67
2019-01-09T19:37:54.470Z,3.92
2019-01-09T19:40:23.572Z,4.08
2019-01-09T19:42:52.763Z,3.87
2019-01-09T19:45:21.904Z,4.67
2019-01-09T19:47:51.095Z,4.03
2019-01-09T19:50:22.377Z,4.92
2019-01-09T19:52:52.515Z,3.87
2019-01-09T19:55:21.750Z,3.37
2019-01-09T19:57:50.879Z,5.20
2019-01-09T20:00:23.913Z,3.90
2019-01-09T20:02:53.094Z,4.10
2019-01-09T20:05:22.612Z,3.95
2019-01-09T20:07:52.069Z,4.75
2019-01-09T20:10:23.998Z,4.08
2019-01-09T20:12:53.429Z,3.98
2019-01-09T20:15:22.611Z,3.60
2019-01-09T20:17:51.772Z,4.20
2019-01-09T20:20:21.457Z,4.30
2019-01-09T20:22:51.145Z,4.30
2019-01-09T20:25:20.323Z,5.00
2019-01-09T20:27:49.533Z,4.15
2019-01-09T20:30:25.735Z,4.47
2019-01-09T20:32:55.158Z,4.75
2019-01-09T20:35:24.655Z,5.20
2019-01-09T20:37:53.769Z,5.00
2019-01-09T20:40:22.842Z,4.97
2019-01-09T20:42:51.938Z,6.28
2019-01-09T20:45:21.538Z,4.03
2019-01-09T20:47:50.642Z,4.33
2019-01-09T20:50:23.121Z,4.05
2019-01-09T20:52:52.244Z,4.90
2019-01-09T20:55:21.553Z,4.37
2019-01-09T20:57:51.436Z,3.90
2019-01-09T21:00:25.473Z,4.33
2019-01-09T21:02:56.129Z,6.08
2019-01-09T21:05:30.899Z,3.80
2019-01-09T21:08:00.377Z,4.55
2019-01-09T21:10:29.754Z,5.00
2019-01-09T21:12:58.836Z,4.78
2019-01-09T21:15:28.049Z,3.95
2019-01-09T21:17:57.470Z,3.67
2019-01-09T21:20:26.832Z,4.75
2019-01-09T21:22:56.236Z,4.42
2019-01-09T21:25:25.645Z,4.30
2019-01-09T21:27:54.748Z,5.70
2019-01-09T21:30:26.330Z,5.03
2019-01-09T21:32:56.082Z,4.95
2019-01-09T21:35:25.206Z,5.05
2019-01-09T21:37:54.591Z,5.15
2019-01-09T21:40:27.134Z,5.47
2019-01-09T21:42:56.215Z,7.53
2019-01-09T21:45:25.337Z,5.10
2019-01-09T21:47:54.949Z,5.78
2019-01-09T21:50:24.695Z,5.43
2019-01-09T21:52:53.875Z,5.85
2019-01-09T21:55:22.948Z,5.97
2019-01-09T21:57:52.068Z,5.33
2019-01-09T22:00:27.143Z,5.87
2019-01-09T22:02:56.668Z,7.75
2019-01-09T22:05:25.897Z,5.57
2019-01-09T22:07:55.348Z,5.65
2019-01-09T22:10:31.640Z,5.97
2019-01-09T22:13:01.063Z,5.43
2019-01-09T22:15:30.169Z,5.92
2019-01-09T22:17:59.599Z,4.90
2019-01-09T22:20:28.962Z,5.40
2019-01-09T22:22:58.308Z,4.65
2019-01-09T22:25:27.677Z,5.20
2019-01-09T22:27:56.764Z,4.87
2019-01-09T22:30:28.013Z,5.10
2019-01-09T22:32:57.426Z,4.15
2019-01-09T22:35:26.503Z,4.80
2019-01-09T22:37:55.883Z,4.72
2019-01-09T22:40:25.234Z,5.22
2019-01-09T22:42:54.327Z,5.92
2019-01-09T22:45:23.420Z,6.43
2019-01-09T22:47:52.542Z,5.80
2019-01-09T22:50:23.318Z,6.85
2019-01-09T22:52:52.486Z,7.00
2019-01-09T22:55:21.922Z,6.97
2019-01-09T22:57:51.033Z,6.60
2019-01-09T23:00:49.138Z,5.75
2019-01-09T23:03:18.567Z,5.03
2019-01-09T23:05:48.008Z,6.17
2019-01-09T23:08:17.122Z,6.55
2019-01-09T23:10:54.269Z,5.03
2019-01-09T23:13:17.532Z,5.55
2019-01-09T23:15:46.950Z,6.65
2019-01-09T23:18:16.313Z,4.12
2019-01-09T23:20:45.433Z,3.87
2019-01-09T23:23:15.376Z,4.20
2019-01-09T23:25:44.489Z,4.73
2019-01-09T23:28:13.564Z,5.28
2019-01-09T23:30:43.072Z,5.00
2019-01-09T23:33:12.419Z,4.60
2019-01-09T23:35:41.849Z,3.77
2019-01-09T23:38:10.968Z,3.50
2019-01-09T23:40:40.094Z,3.30
2019-01-09T23:43:09.205Z,3.07
2019-01-09T23:45:38.365Z,3.90
2019-01-09T23:48:07.498Z,3.57
2019-01-09T23:50:36.648Z,2.97
2019-01-09T23:53:05.761Z,3.25
2019-01-09T23:55:35.492Z,4.22
2019-01-09T23:58:04.623Z,4.67
